sensor_id;sensor_type;location;lat;lon;timestamp;P1;durP1;ratioP1;P2;durP2;ratioP2
75823;SDS011;64457;51.976;9.834;2023-05-25T00:01:00;26.77;;;12.90;;
75823;SDS011;64457;51.976;9.834;2023-05-25T00:03:29;29.43;;;12.90;;
75823;SDS011;64457;51.976;9.834;2023-05-25T00:05:58;29.47;;;12.20;;
75823;SDS011;64457;51.976;9.834;2023-05-25T00:08:30;30.57;;;12.60;;
75823;SDS011;64457;51.976;9.834;2023-05-25T00:10:59;31.30;;;13.70;;
75823;SDS011;64457;51.976;9.834;2023-05-25T00:13:30;36.90;;;14.60;;
75823;SDS011;64457;51.976;9.834;2023-05-25T00:15:58;29.97;;;13.77;;
75823;SDS011;64457;51.976;9.834;2023-05-25T00:18:26;30.17;;;14.00;;
75823;SDS011;64457;51.976;9.834;2023-05-25T00:20:54;37.97;;;15.70;;
75823;SDS011;64457;51.976;9.834;2023-05-25T00:23:22;50.83;;;14.17;;
75823;SDS011;64457;51.976;9.834;2023-05-25T00:25:50;31.67;;;14.20;;
75823;SDS011;64457;51.976;9.834;2023-05-25T00:28:19;41.40;;;16.50;;
75823;SDS011;64457;51.976;9.834;2023-05-25T00:30:51;41.33;;;16.87;;
75823;SDS011;64457;51.976;9.834;2023-05-25T00:33:21;40.07;;;15.50;;
75823;SDS011;64457;51.976;9.834;2023-05-25T00:35:48;34.03;;;15.90;;
75823;SDS011;64457;51.976;9.834;2023-05-25T00:38:17;36.47;;;17.07;;
75823;SDS011;64457;51.976;9.834;2023-05-25T00:40:47;35.20;;;16.17;;
75823;SDS011;64457;51.976;9.834;2023-05-25T00:43:20;36.77;;;15.77;;
75823;SDS011;64457;51.976;9.834;2023-05-25T00:45:50;37.10;;;16.43;;
75823;SDS011;64457;51.976;9.834;2023-05-25T00:48:20;38.13;;;16.47;;
75823;SDS011;64457;51.976;9.834;2023-05-25T00:50:49;34.93;;;14.77;;
75823;SDS011;64457;51.976;9.834;2023-05-25T00:53:22;35.70;;;14.40;;
75823;SDS011;64457;51.976;9.834;2023-05-25T00:55:52;33.00;;;14.63;;
75823;SDS011;64457;51.976;9.834;2023-05-25T00:58:27;29.33;;;13.83;;
75823;SDS011;64457;51.976;9.834;2023-05-25T01:01:03;31.17;;;13.63;;
75823;SDS011;64457;51.976;9.834;2023-05-25T01:03:36;32.27;;;14.43;;
75823;SDS011;64457;51.976;9.834;2023-05-25T01:06:07;30.53;;;14.40;;
75823;SDS011;64457;51.976;9.834;2023-05-25T01:08:39;46.10;;;14.10;;
75823;SDS011;64457;51.976;9.834;2023-05-25T01:11:13;31.77;;;14.23;;
75823;SDS011;64457;51.976;9.834;2023-05-25T01:13:43;34.60;;;15.00;;
75823;SDS011;64457;51.976;9.834;2023-05-25T01:16:13;30.50;;;14.53;;
75823;SDS011;64457;51.976;9.834;2023-05-25T01:18:42;41.90;;;14.73;;
75823;SDS011;64457;51.976;9.834;2023-05-25T01:21:16;31.50;;;14.87;;
75823;SDS011;64457;51.976;9.834;2023-05-25T01:23:50;35.47;;;15.10;;
75823;SDS011;64457;51.976;9.834;2023-05-25T01:26:31;32.63;;;15.57;;
75823;SDS011;64457;51.976;9.834;2023-05-25T01:29:08;33.40;;;15.63;;
75823;SDS011;64457;51.976;9.834;2023-05-25T01:31:39;34.07;;;15.90;;
75823;SDS011;64457;51.976;9.834;2023-05-25T01:34:07;32.80;;;15.00;;
75823;SDS011;64457;51.976;9.834;2023-05-25T01:36:38;31.40;;;15.03;;
75823;SDS011;64457;51.976;9.834;2023-05-25T01:39:07;36.83;;;15.40;;
75823;SDS011;64457;51.976;9.834;2023-05-25T01:41:37;32.83;;;14.80;;
75823;SDS011;64457;51.976;9.834;2023-05-25T01:44:04;33.67;;;14.50;;
75823;SDS011;64457;51.976;9.834;2023-05-25T01:46:33;33.27;;;14.10;;
75823;SDS011;64457;51.976;9.834;2023-05-25T01:49:09;37.70;;;14.77;;
75823;SDS011;64457;51.976;9.834;2023-05-25T01:51:52;33.33;;;13.47;;
75823;SDS011;64457;51.976;9.834;2023-05-25T01:54:28;35.37;;;15.27;;
75823;SDS011;64457;51.976;9.834;2023-05-25T01:57:14;40.57;;;16.37;;
75823;SDS011;64457;51.976;9.834;2023-05-25T01:59:46;36.23;;;16.67;;
75823;SDS011;64457;51.976;9.834;2023-05-25T02:02:20;29.20;;;13.80;;
75823;SDS011;64457;51.976;9.834;2023-05-25T02:04:48;28.50;;;13.43;;
75823;SDS011;64457;51.976;9.834;2023-05-25T02:07:17;25.20;;;12.00;;
75823;SDS011;64457;51.976;9.834;2023-05-25T02:09:45;28.90;;;12.40;;
75823;SDS011;64457;51.976;9.834;2023-05-25T02:12:13;27.80;;;12.30;;
75823;SDS011;64457;51.976;9.834;2023-05-25T02:14:40;32.50;;;14.50;;
75823;SDS011;64457;51.976;9.834;2023-05-25T02:17:10;45.77;;;13.57;;
75823;SDS011;64457;51.976;9.834;2023-05-25T02:19:37;28.17;;;14.07;;
75823;SDS011;64457;51.976;9.834;2023-05-25T02:22:06;30.17;;;14.73;;
75823;SDS011;64457;51.976;9.834;2023-05-25T02:24:35;31.37;;;14.00;;
75823;SDS011;64457;51.976;9.834;2023-05-25T02:27:03;40.87;;;15.60;;
75823;SDS011;64457;51.976;9.834;2023-05-25T02:29:31;29.33;;;14.67;;
75823;SDS011;64457;51.976;9.834;2023-05-25T02:31:59;34.00;;;14.57;;
75823;SDS011;64457;51.976;9.834;2023-05-25T02:34:28;34.97;;;14.43;;
75823;SDS011;64457;51.976;9.834;2023-05-25T02:36:56;36.70;;;15.40;;
75823;SDS011;64457;51.976;9.834;2023-05-25T02:39:23;32.43;;;16.00;;
75823;SDS011;64457;51.976;9.834;2023-05-25T02:41:53;33.70;;;15.13;;
75823;SDS011;64457;51.976;9.834;2023-05-25T02:44:20;34.87;;;14.67;;
75823;SDS011;64457;51.976;9.834;2023-05-25T02:46:49;35.77;;;15.33;;
75823;SDS011;64457;51.976;9.834;2023-05-25T02:49:17;35.00;;;14.00;;
75823;SDS011;64457;51.976;9.834;2023-05-25T02:51:44;34.67;;;15.27;;
75823;SDS011;64457;51.976;9.834;2023-05-25T02:54:12;35.57;;;14.83;;
75823;SDS011;64457;51.976;9.834;2023-05-25T02:56:42;41.83;;;15.07;;
75823;SDS011;64457;51.976;9.834;2023-05-25T02:59:15;33.50;;;15.03;;
75823;SDS011;64457;51.976;9.834;2023-05-25T03:01:42;35.10;;;15.70;;
75823;SDS011;64457;51.976;9.834;2023-05-25T03:04:10;32.13;;;14.80;;
75823;SDS011;64457;51.976;9.834;2023-05-25T03:06:37;31.53;;;13.23;;
75823;SDS011;64457;51.976;9.834;2023-05-25T03:09:05;29.47;;;13.73;;
75823;SDS011;64457;51.976;9.834;2023-05-25T03:11:33;33.87;;;14.30;;
75823;SDS011;64457;51.976;9.834;2023-05-25T03:14:03;33.00;;;13.83;;
75823;SDS011;64457;51.976;9.834;2023-05-25T03:16:33;30.40;;;14.10;;
75823;SDS011;64457;51.976;9.834;2023-05-25T03:19:04;30.93;;;14.10;;
75823;SDS011;64457;51.976;9.834;2023-05-25T03:21:32;32.57;;;15.00;;
75823;SDS011;64457;51.976;9.834;2023-05-25T03:24:00;33.20;;;14.63;;
75823;SDS011;64457;51.976;9.834;2023-05-25T03:26:29;34.60;;;15.30;;
75823;SDS011;64457;51.976;9.834;2023-05-25T03:28:57;33.93;;;14.70;;
75823;SDS011;64457;51.976;9.834;2023-05-25T03:31:25;36.10;;;14.30;;
75823;SDS011;64457;51.976;9.834;2023-05-25T03:33:54;28.67;;;13.53;;
75823;SDS011;64457;51.976;9.834;2023-05-25T03:36:22;32.97;;;14.20;;
75823;SDS011;64457;51.976;9.834;2023-05-25T03:38:51;30.23;;;13.13;;
75823;SDS011;64457;51.976;9.834;2023-05-25T03:41:19;27.33;;;13.43;;
75823;SDS011;64457;51.976;9.834;2023-05-25T03:44:01;32.60;;;13.60;;
75823;SDS011;64457;51.976;9.834;2023-05-25T03:46:29;30.23;;;14.03;;
75823;SDS011;64457;51.976;9.834;2023-05-25T03:48:59;30.03;;;13.20;;
75823;SDS011;64457;51.976;9.834;2023-05-25T03:51:26;28.73;;;13.43;;
75823;SDS011;64457;51.976;9.834;2023-05-25T03:53:54;29.67;;;13.10;;
75823;SDS011;64457;51.976;9.834;2023-05-25T03:56:22;46.70;;;15.20;;
75823;SDS011;64457;51.976;9.834;2023-05-25T03:58:50;31.70;;;15.20;;
75823;SDS011;64457;51.976;9.834;2023-05-25T04:01:18;32.90;;;14.40;;
75823;SDS011;64457;51.976;9.834;2023-05-25T04:03:50;27.90;;;13.40;;
75823;SDS011;64457;51.976;9.834;2023-05-25T04:06:20;28.10;;;13.27;;
75823;SDS011;64457;51.976;9.834;2023-05-25T04:08:49;29.07;;;14.13;;
75823;SDS011;64457;51.976;9.834;2023-05-25T04:11:17;30.43;;;13.03;;
75823;SDS011;64457;51.976;9.834;2023-05-25T04:13:46;30.30;;;14.70;;
75823;SDS011;64457;51.976;9.834;2023-05-25T04:16:14;31.00;;;15.07;;
75823;SDS011;64457;51.976;9.834;2023-05-25T04:18:44;34.20;;;14.33;;
75823;SDS011;64457;51.976;9.834;2023-05-25T04:21:11;34.03;;;14.47;;
75823;SDS011;64457;51.976;9.834;2023-05-25T04:23:41;26.90;;;12.93;;
75823;SDS011;64457;51.976;9.834;2023-05-25T04:26:11;39.27;;;16.03;;
75823;SDS011;64457;51.976;9.834;2023-05-25T04:28:39;41.07;;;15.97;;
75823;SDS011;64457;51.976;9.834;2023-05-25T04:31:07;34.70;;;16.07;;
75823;SDS011;64457;51.976;9.834;2023-05-25T04:33:37;41.00;;;16.70;;
75823;SDS011;64457;51.976;9.834;2023-05-25T04:36:05;37.83;;;16.40;;
75823;SDS011;64457;51.976;9.834;2023-05-25T04:38:37;38.90;;;16.33;;
75823;SDS011;64457;51.976;9.834;2023-05-25T04:41:09;38.47;;;15.70;;
75823;SDS011;64457;51.976;9.834;2023-05-25T04:43:43;30.93;;;15.27;;
75823;SDS011;64457;51.976;9.834;2023-05-25T04:46:11;37.00;;;16.10;;
75823;SDS011;64457;51.976;9.834;2023-05-25T04:48:41;40.20;;;16.57;;
75823;SDS011;64457;51.976;9.834;2023-05-25T04:51:10;35.17;;;15.40;;
75823;SDS011;64457;51.976;9.834;2023-05-25T04:53:38;35.57;;;14.77;;
75823;SDS011;64457;51.976;9.834;2023-05-25T04:56:07;32.20;;;15.20;;
75823;SDS011;64457;51.976;9.834;2023-05-25T04:58:35;30.53;;;15.17;;
75823;SDS011;64457;51.976;9.834;2023-05-25T05:01:02;31.23;;;14.30;;
75823;SDS011;64457;51.976;9.834;2023-05-25T05:03:30;32.33;;;14.37;;
75823;SDS011;64457;51.976;9.834;2023-05-25T05:05:58;32.00;;;14.50;;
75823;SDS011;64457;51.976;9.834;2023-05-25T05:08:26;29.17;;;13.90;;
75823;SDS011;64457;51.976;9.834;2023-05-25T05:10:55;29.70;;;15.20;;
75823;SDS011;64457;51.976;9.834;2023-05-25T05:13:24;32.73;;;13.90;;
75823;SDS011;64457;51.976;9.834;2023-05-25T05:15:52;29.93;;;13.83;;
75823;SDS011;64457;51.976;9.834;2023-05-25T05:18:20;29.90;;;13.10;;
75823;SDS011;64457;51.976;9.834;2023-05-25T05:20:47;38.97;;;16.27;;
75823;SDS011;64457;51.976;9.834;2023-05-25T05:23:15;32.20;;;13.97;;
75823;SDS011;64457;51.976;9.834;2023-05-25T05:25:43;28.23;;;13.80;;
75823;SDS011;64457;51.976;9.834;2023-05-25T05:28:11;33.30;;;14.10;;
75823;SDS011;64457;51.976;9.834;2023-05-25T05:30:41;39.03;;;14.80;;
75823;SDS011;64457;51.976;9.834;2023-05-25T05:33:11;33.83;;;15.57;;
75823;SDS011;64457;51.976;9.834;2023-05-25T05:35:39;34.07;;;14.37;;
75823;SDS011;64457;51.976;9.834;2023-05-25T05:38:06;29.60;;;14.53;;
75823;SDS011;64457;51.976;9.834;2023-05-25T05:40:35;39.20;;;13.73;;
75823;SDS011;64457;51.976;9.834;2023-05-25T05:43:02;45.03;;;15.97;;
75823;SDS011;64457;51.976;9.834;2023-05-25T05:45:31;32.27;;;15.90;;
75823;SDS011;64457;51.976;9.834;2023-05-25T05:48:00;31.57;;;14.40;;
75823;SDS011;64457;51.976;9.834;2023-05-25T05:50:28;43.30;;;16.90;;
75823;SDS011;64457;51.976;9.834;2023-05-25T05:52:56;40.23;;;14.73;;
75823;SDS011;64457;51.976;9.834;2023-05-25T05:55:24;32.17;;;14.80;;
75823;SDS011;64457;51.976;9.834;2023-05-25T05:57:54;32.37;;;15.17;;
75823;SDS011;64457;51.976;9.834;2023-05-25T06:00:23;41.40;;;15.27;;
75823;SDS011;64457;51.976;9.834;2023-05-25T06:02:51;37.07;;;16.70;;
75823;SDS011;64457;51.976;9.834;2023-05-25T06:05:20;36.60;;;16.43;;
75823;SDS011;64457;51.976;9.834;2023-05-25T06:07:47;38.00;;;15.90;;
75823;SDS011;64457;51.976;9.834;2023-05-25T06:10:16;43.77;;;16.67;;
75823;SDS011;64457;51.976;9.834;2023-05-25T06:12:44;37.10;;;16.40;;
75823;SDS011;64457;51.976;9.834;2023-05-25T06:15:11;37.13;;;15.83;;
75823;SDS011;64457;51.976;9.834;2023-05-25T06:17:39;41.20;;;16.47;;
75823;SDS011;64457;51.976;9.834;2023-05-25T06:20:07;40.67;;;16.60;;
75823;SDS011;64457;51.976;9.834;2023-05-25T06:22:39;34.87;;;15.40;;
75823;SDS011;64457;51.976;9.834;2023-05-25T06:25:08;33.50;;;15.13;;
75823;SDS011;64457;51.976;9.834;2023-05-25T06:27:38;34.43;;;15.97;;
75823;SDS011;64457;51.976;9.834;2023-05-25T06:30:07;39.20;;;16.53;;
75823;SDS011;64457;51.976;9.834;2023-05-25T06:32:35;29.50;;;14.53;;
75823;SDS011;64457;51.976;9.834;2023-05-25T06:35:03;37.90;;;16.63;;
75823;SDS011;64457;51.976;9.834;2023-05-25T06:37:37;34.13;;;16.10;;
75823;SDS011;64457;51.976;9.834;2023-05-25T06:40:05;36.63;;;16.90;;
75823;SDS011;64457;51.976;9.834;2023-05-25T06:42:34;44.10;;;17.03;;
75823;SDS011;64457;51.976;9.834;2023-05-25T06:45:02;46.07;;;18.03;;
75823;SDS011;64457;51.976;9.834;2023-05-25T06:47:32;39.93;;;17.37;;
75823;SDS011;64457;51.976;9.834;2023-05-25T06:50:01;40.97;;;17.57;;
75823;SDS011;64457;51.976;9.834;2023-05-25T06:52:29;38.03;;;16.90;;
75823;SDS011;64457;51.976;9.834;2023-05-25T06:54:58;35.93;;;18.10;;
75823;SDS011;64457;51.976;9.834;2023-05-25T06:57:28;37.37;;;18.13;;
75823;SDS011;64457;51.976;9.834;2023-05-25T06:59:55;37.77;;;16.37;;
75823;SDS011;64457;51.976;9.834;2023-05-25T07:02:24;47.03;;;17.17;;
75823;SDS011;64457;51.976;9.834;2023-05-25T07:04:51;34.50;;;15.80;;
75823;SDS011;64457;51.976;9.834;2023-05-25T07:07:19;42.23;;;17.03;;
75823;SDS011;64457;51.976;9.834;2023-05-25T07:09:47;37.77;;;16.93;;
75823;SDS011;64457;51.976;9.834;2023-05-25T07:12:18;35.97;;;16.40;;
75823;SDS011;64457;51.976;9.834;2023-05-25T07:14:46;37.77;;;17.53;;
75823;SDS011;64457;51.976;9.834;2023-05-25T07:17:13;37.20;;;16.80;;
75823;SDS011;64457;51.976;9.834;2023-05-25T07:19:42;35.27;;;16.27;;
75823;SDS011;64457;51.976;9.834;2023-05-25T07:22:10;35.23;;;16.40;;
75823;SDS011;64457;51.976;9.834;2023-05-25T07:24:37;31.23;;;15.20;;
75823;SDS011;64457;51.976;9.834;2023-05-25T07:27:05;35.73;;;16.23;;
75823;SDS011;64457;51.976;9.834;2023-05-25T07:29:35;32.50;;;15.17;;
75823;SDS011;64457;51.976;9.834;2023-05-25T07:32:03;49.07;;;16.10;;
75823;SDS011;64457;51.976;9.834;2023-05-25T07:34:32;31.37;;;16.17;;
75823;SDS011;64457;51.976;9.834;2023-05-25T07:37:00;35.50;;;15.33;;
75823;SDS011;64457;51.976;9.834;2023-05-25T07:39:28;30.20;;;15.40;;
75823;SDS011;64457;51.976;9.834;2023-05-25T07:41:56;32.67;;;14.93;;
75823;SDS011;64457;51.976;9.834;2023-05-25T07:44:23;38.70;;;15.00;;
75823;SDS011;64457;51.976;9.834;2023-05-25T07:46:53;41.03;;;14.87;;
75823;SDS011;64457;51.976;9.834;2023-05-25T07:49:20;29.83;;;14.33;;
75823;SDS011;64457;51.976;9.834;2023-05-25T07:51:47;32.93;;;14.30;;
75823;SDS011;64457;51.976;9.834;2023-05-25T07:54:15;34.83;;;14.33;;
75823;SDS011;64457;51.976;9.834;2023-05-25T07:56:44;31.47;;;15.00;;
75823;SDS011;64457;51.976;9.834;2023-05-25T07:59:11;29.30;;;13.40;;
75823;SDS011;64457;51.976;9.834;2023-05-25T08:01:40;39.93;;;14.87;;
75823;SDS011;64457;51.976;9.834;2023-05-25T08:04:10;26.77;;;13.10;;
75823;SDS011;64457;51.976;9.834;2023-05-25T08:06:38;27.53;;;12.97;;
75823;SDS011;64457;51.976;9.834;2023-05-25T08:09:06;29.50;;;12.90;;
75823;SDS011;64457;51.976;9.834;2023-05-25T08:11:36;28.43;;;12.43;;
75823;SDS011;64457;51.976;9.834;2023-05-25T08:14:04;28.13;;;13.67;;
75823;SDS011;64457;51.976;9.834;2023-05-25T08:16:31;29.23;;;13.83;;
75823;SDS011;64457;51.976;9.834;2023-05-25T08:19:00;28.93;;;13.53;;
75823;SDS011;64457;51.976;9.834;2023-05-25T08:21:30;27.00;;;12.60;;
75823;SDS011;64457;51.976;9.834;2023-05-25T08:23:59;26.70;;;12.87;;
75823;SDS011;64457;51.976;9.834;2023-05-25T08:26:29;27.23;;;12.23;;
75823;SDS011;64457;51.976;9.834;2023-05-25T08:28:57;30.40;;;13.57;;
75823;SDS011;64457;51.976;9.834;2023-05-25T08:31:26;34.50;;;12.40;;
75823;SDS011;64457;51.976;9.834;2023-05-25T08:33:54;26.80;;;12.10;;
75823;SDS011;64457;51.976;9.834;2023-05-25T08:36:22;30.87;;;12.60;;
75823;SDS011;64457;51.976;9.834;2023-05-25T08:38:51;27.93;;;11.97;;
75823;SDS011;64457;51.976;9.834;2023-05-25T08:41:19;23.87;;;11.20;;
75823;SDS011;64457;51.976;9.834;2023-05-25T08:43:49;23.80;;;11.73;;
75823;SDS011;64457;51.976;9.834;2023-05-25T08:46:21;22.77;;;11.40;;
75823;SDS011;64457;51.976;9.834;2023-05-25T08:48:57;22.43;;;11.40;;
75823;SDS011;64457;51.976;9.834;2023-05-25T08:51:31;25.30;;;12.30;;
75823;SDS011;64457;51.976;9.834;2023-05-25T08:54:06;26.00;;;11.20;;
75823;SDS011;64457;51.976;9.834;2023-05-25T08:56:40;23.60;;;10.93;;
75823;SDS011;64457;51.976;9.834;2023-05-25T08:59:17;22.37;;;11.47;;
75823;SDS011;64457;51.976;9.834;2023-05-25T09:02:00;26.63;;;9.80;;
75823;SDS011;64457;51.976;9.834;2023-05-25T09:04:38;22.93;;;10.60;;
75823;SDS011;64457;51.976;9.834;2023-05-25T09:07:08;24.03;;;10.30;;
75823;SDS011;64457;51.976;9.834;2023-05-25T09:09:39;20.27;;;10.20;;
75823;SDS011;64457;51.976;9.834;2023-05-25T09:12:08;20.90;;;10.00;;
75823;SDS011;64457;51.976;9.834;2023-05-25T09:14:36;21.20;;;10.33;;
75823;SDS011;64457;51.976;9.834;2023-05-25T09:17:10;20.87;;;10.23;;
75823;SDS011;64457;51.976;9.834;2023-05-25T09:19:38;20.70;;;9.20;;
75823;SDS011;64457;51.976;9.834;2023-05-25T09:22:06;20.50;;;9.23;;
75823;SDS011;64457;51.976;9.834;2023-05-25T09:24:36;16.33;;;8.07;;
75823;SDS011;64457;51.976;9.834;2023-05-25T09:27:08;21.97;;;9.53;;
75823;SDS011;64457;51.976;9.834;2023-05-25T09:29:37;20.20;;;8.50;;
75823;SDS011;64457;51.976;9.834;2023-05-25T09:32:08;18.90;;;8.37;;
75823;SDS011;64457;51.976;9.834;2023-05-25T09:34:36;19.93;;;9.03;;
75823;SDS011;64457;51.976;9.834;2023-05-25T09:37:09;20.23;;;9.20;;
75823;SDS011;64457;51.976;9.834;2023-05-25T09:39:41;28.00;;;9.20;;
75823;SDS011;64457;51.976;9.834;2023-05-25T09:42:11;19.60;;;8.50;;
75823;SDS011;64457;51.976;9.834;2023-05-25T09:44:39;20.70;;;9.20;;
75823;SDS011;64457;51.976;9.834;2023-05-25T09:47:07;19.53;;;9.03;;
75823;SDS011;64457;51.976;9.834;2023-05-25T09:49:35;18.23;;;8.27;;
75823;SDS011;64457;51.976;9.834;2023-05-25T09:52:04;17.10;;;8.43;;
75823;SDS011;64457;51.976;9.834;2023-05-25T09:54:32;16.67;;;8.10;;
75823;SDS011;64457;51.976;9.834;2023-05-25T09:57:02;19.40;;;8.80;;
75823;SDS011;64457;51.976;9.834;2023-05-25T09:59:35;18.60;;;8.00;;
75823;SDS011;64457;51.976;9.834;2023-05-25T10:02:03;21.73;;;8.13;;
75823;SDS011;64457;51.976;9.834;2023-05-25T10:04:32;21.23;;;8.67;;
75823;SDS011;64457;51.976;9.834;2023-05-25T10:07:00;18.83;;;8.30;;
75823;SDS011;64457;51.976;9.834;2023-05-25T10:09:34;17.73;;;7.20;;
75823;SDS011;64457;51.976;9.834;2023-05-25T10:12:09;18.67;;;8.57;;
75823;SDS011;64457;51.976;9.834;2023-05-25T10:14:42;22.27;;;7.90;;
75823;SDS011;64457;51.976;9.834;2023-05-25T10:17:12;17.30;;;8.67;;
75823;SDS011;64457;51.976;9.834;2023-05-25T10:19:45;20.33;;;9.60;;
75823;SDS011;64457;51.976;9.834;2023-05-25T10:22:22;19.50;;;9.70;;
75823;SDS011;64457;51.976;9.834;2023-05-25T10:24:59;20.33;;;9.20;;
75823;SDS011;64457;51.976;9.834;2023-05-25T10:27:35;20.23;;;9.60;;
75823;SDS011;64457;51.976;9.834;2023-05-25T10:30:09;24.77;;;9.17;;
75823;SDS011;64457;51.976;9.834;2023-05-25T10:32:39;19.70;;;10.33;;
75823;SDS011;64457;51.976;9.834;2023-05-25T10:35:12;24.23;;;10.67;;
75823;SDS011;64457;51.976;9.834;2023-05-25T10:37:42;22.17;;;11.03;;
75823;SDS011;64457;51.976;9.834;2023-05-25T10:40:13;22.87;;;11.13;;
75823;SDS011;64457;51.976;9.834;2023-05-25T10:42:45;22.43;;;11.27;;
75823;SDS011;64457;51.976;9.834;2023-05-25T10:45:17;27.03;;;11.13;;
75823;SDS011;64457;51.976;9.834;2023-05-25T10:47:46;24.33;;;11.83;;
75823;SDS011;64457;51.976;9.834;2023-05-25T10:50:18;25.23;;;10.50;;
75823;SDS011;64457;51.976;9.834;2023-05-25T10:52:59;24.77;;;11.60;;
75823;SDS011;64457;51.976;9.834;2023-05-25T10:55:27;24.90;;;11.47;;
75823;SDS011;64457;51.976;9.834;2023-05-25T10:58:09;26.33;;;12.20;;
75823;SDS011;64457;51.976;9.834;2023-05-25T11:00:41;26.30;;;12.57;;
75823;SDS011;64457;51.976;9.834;2023-05-25T11:03:23;24.90;;;11.07;;
75823;SDS011;64457;51.976;9.834;2023-05-25T11:06:15;25.60;;;11.93;;
75823;SDS011;64457;51.976;9.834;2023-05-25T11:08:49;25.40;;;11.80;;
75823;SDS011;64457;51.976;9.834;2023-05-25T11:11:19;30.00;;;12.57;;
75823;SDS011;64457;51.976;9.834;2023-05-25T11:13:47;23.83;;;12.73;;
75823;SDS011;64457;51.976;9.834;2023-05-25T11:19:02;26.37;;;13.50;;
75823;SDS011;64457;51.976;9.834;2023-05-25T11:21:41;25.37;;;13.30;;
75823;SDS011;64457;51.976;9.834;2023-05-25T11:24:11;28.73;;;12.80;;
75823;SDS011;64457;51.976;9.834;2023-05-25T11:26:56;27.67;;;14.23;;
75823;SDS011;64457;51.976;9.834;2023-05-25T11:29:29;29.10;;;13.33;;
75823;SDS011;64457;51.976;9.834;2023-05-25T11:31:59;26.63;;;13.60;;
75823;SDS011;64457;51.976;9.834;2023-05-25T11:34:27;24.93;;;12.90;;
75823;SDS011;64457;51.976;9.834;2023-05-25T11:36:58;26.03;;;11.53;;
75823;SDS011;64457;51.976;9.834;2023-05-25T11:39:27;26.67;;;11.77;;
75823;SDS011;64457;51.976;9.834;2023-05-25T11:42:00;23.57;;;11.67;;
75823;SDS011;64457;51.976;9.834;2023-05-25T11:44:31;21.23;;;9.50;;
75823;SDS011;64457;51.976;9.834;2023-05-25T11:47:04;24.67;;;9.10;;
75823;SDS011;64457;51.976;9.834;2023-05-25T11:49:34;22.50;;;9.10;;
75823;SDS011;64457;51.976;9.834;2023-05-25T11:52:06;19.80;;;8.97;;
75823;SDS011;64457;51.976;9.834;2023-05-25T11:54:34;22.17;;;8.83;;
75823;SDS011;64457;51.976;9.834;2023-05-25T11:57:11;18.73;;;8.90;;
75823;SDS011;64457;51.976;9.834;2023-05-25T11:59:46;24.10;;;8.80;;
75823;SDS011;64457;51.976;9.834;2023-05-25T12:02:16;20.77;;;9.37;;
75823;SDS011;64457;51.976;9.834;2023-05-25T12:04:51;26.10;;;9.27;;
75823;SDS011;64457;51.976;9.834;2023-05-25T12:07:20;19.07;;;8.90;;
75823;SDS011;64457;51.976;9.834;2023-05-25T12:09:48;21.07;;;9.23;;
75823;SDS011;64457;51.976;9.834;2023-05-25T12:12:16;18.43;;;9.03;;
75823;SDS011;64457;51.976;9.834;2023-05-25T12:14:45;19.83;;;8.17;;
75823;SDS011;64457;51.976;9.834;2023-05-25T12:17:14;17.90;;;7.60;;
75823;SDS011;64457;51.976;9.834;2023-05-25T12:19:43;19.73;;;8.70;;
75823;SDS011;64457;51.976;9.834;2023-05-25T12:22:11;17.30;;;8.60;;
75823;SDS011;64457;51.976;9.834;2023-05-25T12:24:40;21.53;;;8.90;;
75823;SDS011;64457;51.976;9.834;2023-05-25T12:27:19;18.23;;;8.40;;
75823;SDS011;64457;51.976;9.834;2023-05-25T12:29:48;21.47;;;8.87;;
75823;SDS011;64457;51.976;9.834;2023-05-25T12:32:18;18.73;;;7.87;;
75823;SDS011;64457;51.976;9.834;2023-05-25T12:34:46;19.97;;;7.33;;
75823;SDS011;64457;51.976;9.834;2023-05-25T12:37:17;17.07;;;6.80;;
75823;SDS011;64457;51.976;9.834;2023-05-25T12:39:46;20.30;;;7.83;;
75823;SDS011;64457;51.976;9.834;2023-05-25T12:42:15;19.83;;;7.33;;
75823;SDS011;64457;51.976;9.834;2023-05-25T12:44:43;18.60;;;7.70;;
75823;SDS011;64457;51.976;9.834;2023-05-25T12:47:12;22.53;;;8.80;;
75823;SDS011;64457;51.976;9.834;2023-05-25T12:49:42;17.37;;;7.70;;
75823;SDS011;64457;51.976;9.834;2023-05-25T12:57:51;18.00;;;7.20;;
75823;SDS011;64457;51.976;9.834;2023-05-25T13:00:19;27.20;;;8.00;;
75823;SDS011;64457;51.976;9.834;2023-05-25T13:02:48;18.37;;;7.40;;
75823;SDS011;64457;51.976;9.834;2023-05-25T13:05:22;19.20;;;6.93;;
75823;SDS011;64457;51.976;9.834;2023-05-25T13:07:52;14.10;;;6.37;;
75823;SDS011;64457;51.976;9.834;2023-05-25T13:10:21;18.23;;;7.27;;
75823;SDS011;64457;51.976;9.834;2023-05-25T13:12:50;21.90;;;8.17;;
75823;SDS011;64457;51.976;9.834;2023-05-25T13:15:19;17.30;;;6.40;;
75823;SDS011;64457;51.976;9.834;2023-05-25T13:17:47;17.90;;;7.00;;
75823;SDS011;64457;51.976;9.834;2023-05-25T13:20:17;15.97;;;7.37;;
75823;SDS011;64457;51.976;9.834;2023-05-25T13:22:47;15.87;;;6.27;;
75823;SDS011;64457;51.976;9.834;2023-05-25T13:25:17;16.30;;;7.20;;
75823;SDS011;64457;51.976;9.834;2023-05-25T13:27:47;16.97;;;6.60;;
75823;SDS011;64457;51.976;9.834;2023-05-25T13:30:16;17.83;;;7.17;;
75823;SDS011;64457;51.976;9.834;2023-05-25T13:32:44;16.10;;;6.30;;
75823;SDS011;64457;51.976;9.834;2023-05-25T13:35:12;15.67;;;6.20;;
75823;SDS011;64457;51.976;9.834;2023-05-25T13:37:48;18.17;;;6.40;;
75823;SDS011;64457;51.976;9.834;2023-05-25T13:40:17;17.97;;;6.53;;
75823;SDS011;64457;51.976;9.834;2023-05-25T13:42:45;17.50;;;6.20;;
75823;SDS011;64457;51.976;9.834;2023-05-25T13:45:12;18.20;;;5.90;;
75823;SDS011;64457;51.976;9.834;2023-05-25T13:47:40;15.77;;;5.90;;
75823;SDS011;64457;51.976;9.834;2023-05-25T13:50:09;19.10;;;5.90;;
75823;SDS011;64457;51.976;9.834;2023-05-25T13:52:37;15.70;;;5.47;;
75823;SDS011;64457;51.976;9.834;2023-05-25T13:55:08;16.20;;;5.60;;
75823;SDS011;64457;51.976;9.834;2023-05-25T13:57:36;14.07;;;5.67;;
75823;SDS011;64457;51.976;9.834;2023-05-25T14:00:08;14.13;;;5.50;;
75823;SDS011;64457;51.976;9.834;2023-05-25T14:02:36;13.77;;;5.57;;
75823;SDS011;64457;51.976;9.834;2023-05-25T14:05:04;16.23;;;5.83;;
75823;SDS011;64457;51.976;9.834;2023-05-25T14:07:32;14.97;;;5.00;;
75823;SDS011;64457;51.976;9.834;2023-05-25T14:10:00;15.97;;;5.07;;
75823;SDS011;64457;51.976;9.834;2023-05-25T14:12:29;19.50;;;6.20;;
75823;SDS011;64457;51.976;9.834;2023-05-25T14:14:57;17.20;;;5.30;;
75823;SDS011;64457;51.976;9.834;2023-05-25T14:17:25;15.50;;;5.20;;
75823;SDS011;64457;51.976;9.834;2023-05-25T14:19:52;14.97;;;5.60;;
75823;SDS011;64457;51.976;9.834;2023-05-25T14:22:20;11.43;;;4.63;;
75823;SDS011;64457;51.976;9.834;2023-05-25T14:24:47;16.87;;;5.40;;
75823;SDS011;64457;51.976;9.834;2023-05-25T14:27:16;16.30;;;4.83;;
75823;SDS011;64457;51.976;9.834;2023-05-25T14:29:46;15.50;;;5.27;;
75823;SDS011;64457;51.976;9.834;2023-05-25T14:32:15;14.30;;;4.60;;
75823;SDS011;64457;51.976;9.834;2023-05-25T14:34:43;14.27;;;4.83;;
75823;SDS011;64457;51.976;9.834;2023-05-25T14:37:11;15.03;;;5.10;;
75823;SDS011;64457;51.976;9.834;2023-05-25T14:39:39;15.97;;;5.37;;
75823;SDS011;64457;51.976;9.834;2023-05-25T14:42:06;17.20;;;5.60;;
75823;SDS011;64457;51.976;9.834;2023-05-25T14:44:33;17.43;;;5.10;;
75823;SDS011;64457;51.976;9.834;2023-05-25T14:47:03;13.97;;;4.77;;
75823;SDS011;64457;51.976;9.834;2023-05-25T14:49:31;15.00;;;4.93;;